createdAt,value
2016-07-10T00:00:46.185Z,20.16
2016-07-10T00:01:46.206Z,20.18
2016-07-10T00:02:46.225Z,20.16
2016-07-10T00:03:46.239Z,20.25
2016-07-10T00:04:46.273Z,20.13
2016-07-10T00:05:46.297Z,20.22
2016-07-10T00:06:46.311Z,20.28
2016-07-10T00:07:46.327Z,20.21
2016-07-10T00:08:46.350Z,20.18
2016-07-10T00:09:46.375Z,20.19
2016-07-10T00:10:46.388Z,20.28
2016-07-10T00:11:46.412Z,20.22
2016-07-10T00:12:46.445Z,20.22
2016-07-10T00:13:46.466Z,20.18
2016-07-10T00:14:46.487Z,20.11
2016-07-10T00:15:46.500Z,20.16
2016-07-10T00:16:46.530Z,20.11
2016-07-10T00:17:46.544Z,20.18
2016-07-10T00:18:46.571Z,20.14
2016-07-10T00:19:46.578Z,20.14
2016-07-10T00:20:46.608Z,20.21
2016-07-10T00:21:46.629Z,20.1
2016-07-10T00:22:46.653Z,20.14
2016-07-10T00:23:46.668Z,20.18
2016-07-10T00:24:46.693Z,20.32
2016-07-10T00:25:46.708Z,20.18
2016-07-10T00:26:46.733Z,20.21
2016-07-10T00:27:46.754Z,20.16
2016-07-10T00:28:46.778Z,20.32
2016-07-10T00:29:46.792Z,20.21
2016-07-10T00:30:46.811Z,20.14
2016-07-10T00:31:46.838Z,20.14
2016-07-10T00:32:46.862Z,20.24
2016-07-10T00:33:46.874Z,20.18
2016-07-10T00:34:46.894Z,20.16
2016-07-10T00:35:46.924Z,20.21
2016-07-10T00:36:46.938Z,20.14
2016-07-10T00:37:46.973Z,20.09
2016-07-10T00:38:46.981Z,20.06
2016-07-10T00:39:47.009Z,20.03
2016-07-10T00:40:47.026Z,19.99
2016-07-10T00:41:47.055Z,19.99
2016-07-10T00:42:47.064Z,20.03
2016-07-10T00:43:47.088Z,20.02
2016-07-10T00:44:47.110Z,19.99
2016-07-10T00:45:47.123Z,19.91
2016-07-10T00:46:47.159Z,19.95
2016-07-10T00:47:47.168Z,19.96
2016-07-10T00:48:47.199Z,19.91
2016-07-10T00:49:47.212Z,19.94
2016-07-10T00:50:47.235Z,19.89
2016-07-10T00:51:47.254Z,19.92
2016-07-10T00:52:47.279Z,19.82
2016-07-10T00:53:47.293Z,19.85
2016-07-10T00:54:47.321Z,19.89
2016-07-10T00:55:47.349Z,19.91
2016-07-10T00:56:47.363Z,19.92
2016-07-10T00:57:47.381Z,19.89
2016-07-10T00:58:47.403Z,19.82
2016-07-10T00:59:47.426Z,19.84
2016-07-10T01:00:47.439Z,19.81
2016-07-10T01:01:47.470Z,19.84
2016-07-10T01:02:47.490Z,19.94
2016-07-10T01:03:47.502Z,19.86
2016-07-10T01:04:47.529Z,19.89
2016-07-10T01:05:47.551Z,19.86
2016-07-10T01:06:47.574Z,19.88
2016-07-10T01:07:47.589Z,19.92
2016-07-10T01:08:47.615Z,19.92
2016-07-10T01:09:47.639Z,19.94
2016-07-10T01:10:47.655Z,19.91
2016-07-10T01:11:47.668Z,19.88
2016-07-10T01:12:47.691Z,19.88
2016-07-10T01:13:47.714Z,19.71
2016-07-10T01:14:47.743Z,19.82
2016-07-10T01:15:47.756Z,19.86
2016-07-10T01:16:47.787Z,19.84
2016-07-10T01:17:47.799Z,19.84
2016-07-10T01:18:47.821Z,19.82
2016-07-10T01:19:47.848Z,19.82
2016-07-10T01:20:47.872Z,19.81
2016-07-10T01:21:47.891Z,19.77
2016-07-10T01:22:47.907Z,19.85
2016-07-10T01:23:47.923Z,19.82
2016-07-10T01:24:47.958Z,19.82
2016-07-10T01:25:47.975Z,19.66
2016-07-10T01:26:47.984Z,19.82
2016-07-10T01:27:48.017Z,19.69
2016-07-10T01:28:48.034Z,19.71
2016-07-10T01:29:48.056Z,19.79
2016-07-10T01:30:48.073Z,19.82
2016-07-10T01:31:48.090Z,19.67
2016-07-10T01:32:48.115Z,19.82
2016-07-10T01:33:48.145Z,19.86
2016-07-10T01:34:48.160Z,19.85
2016-07-10T01:35:48.185Z,19.73
2016-07-10T01:36:48.203Z,19.74
2016-07-10T01:37:48.214Z,19.74
2016-07-10T01:38:48.241Z,19.73
2016-07-10T01:39:48.254Z,19.71
2016-07-10T01:40:48.282Z,19.69
2016-07-10T01:41:48.307Z,19.7
2016-07-10T01:42:48.321Z,19.7
2016-07-10T01:43:48.341Z,19.67
2016-07-10T01:44:48.365Z,19.7
2016-07-10T01:45:48.381Z,19.71
2016-07-10T01:46:48.405Z,19.77
2016-07-10T01:47:48.427Z,19.74
2016-07-10T01:48:48.449Z,19.74
2016-07-10T01:49:48.477Z,19.73
2016-07-10T01:50:48.485Z,19.73
2016-07-10T01:51:48.511Z,19.66
2016-07-10T01:52:48.539Z,19.71
2016-07-10T01:53:48.564Z,19.73
2016-07-10T01:54:48.579Z,19.76
2016-07-10T01:55:48.587Z,19.7
2016-07-10T01:56:48.615Z,19.64
2016-07-10T01:57:48.634Z,19.69
2016-07-10T01:58:48.665Z,19.73
2016-07-10T01:59:48.670Z,19.62
2016-07-10T02:00:48.704Z,19.59
2016-07-10T02:01:48.723Z,19.7
2016-07-10T02:02:48.753Z,19.58
2016-07-10T02:03:48.767Z,19.67
2016-07-10T02:04:48.791Z,19.63
2016-07-10T02:05:48.791Z,19.64
2016-07-10T02:06:48.817Z,19.63
2016-07-10T02:07:48.843Z,19.63
2016-07-10T02:08:48.866Z,19.62
2016-07-10T02:09:48.877Z,19.63
2016-07-10T02:10:48.910Z,19.64
2016-07-10T02:11:48.927Z,19.64
2016-07-10T02:12:48.948Z,19.67
2016-07-10T02:13:48.972Z,19.64
2016-07-10T02:14:48.986Z,19.63
2016-07-10T02:15:49.014Z,19.59
2016-07-10T02:16:49.030Z,19.59
2016-07-10T02:17:49.044Z,19.63
2016-07-10T02:18:49.072Z,19.58
2016-07-10T02:19:49.087Z,19.64
2016-07-10T02:20:49.118Z,19.56
2016-07-10T02:21:49.131Z,19.54
2016-07-10T02:22:49.160Z,19.52
2016-07-10T02:23:49.174Z,19.56
2016-07-10T02:24:49.196Z,19.54
2016-07-10T02:25:49.220Z,19.55
2016-07-10T02:26:49.236Z,19.55
2016-07-10T02:27:49.259Z,19.51
2016-07-10T02:28:49.293Z,19.56
2016-07-10T02:29:49.300Z,19.56
2016-07-10T02:30:49.312Z,19.58
2016-07-10T02:31:49.343Z,19.47
2016-07-10T02:32:49.360Z,19.45
2016-07-10T02:33:49.389Z,19.48
2016-07-10T02:34:49.402Z,19.52
2016-07-10T02:35:49.419Z,19.45
2016-07-10T02:36:49.450Z,19.48
2016-07-10T02:37:49.475Z,19.37
2016-07-10T02:38:49.489Z,19.37
2016-07-10T02:39:49.504Z,19.36
2016-07-10T02:40:49.534Z,19.34
2016-07-10T02:41:49.558Z,19.36
2016-07-10T02:42:49.604Z,19.41
2016-07-10T02:43:49.642Z,19.34
2016-07-10T02:44:49.667Z,19.37
2016-07-10T02:45:49.680Z,19.39
2016-07-10T02:46:49.654Z,19.33
2016-07-10T02:47:49.674Z,19.37
2016-07-10T02:48:49.691Z,19.34
2016-07-10T02:49:49.726Z,19.26
2016-07-10T02:50:49.738Z,19.22
2016-07-10T02:51:49.767Z,19.29
2016-07-10T02:52:49.821Z,19.16
2016-07-10T02:53:49.848Z,19.14
2016-07-10T02:54:49.873Z,19.18
2016-07-10T02:55:49.837Z,19.15
2016-07-10T02:56:49.859Z,19.18
2016-07-10T02:57:49.888Z,19.16
2016-07-10T02:58:49.906Z,19.15
2016-07-10T02:59:49.930Z,19.19
2016-07-10T03:00:49.946Z,19.11
2016-07-10T03:01:49.968Z,19.15
2016-07-10T03:02:49.982Z,19.16
2016-07-10T03:03:50.016Z,19.18
2016-07-10T03:04:50.033Z,19.12
2016-07-10T03:05:50.046Z,19.19
2016-07-10T03:06:50.067Z,19.12
2016-07-10T03:07:50.089Z,19.15
2016-07-10T03:08:50.113Z,19.09
2016-07-10T03:09:50.136Z,19.15
2016-07-10T03:10:50.145Z,19.15
2016-07-10T03:11:50.175Z,19.18
2016-07-10T03:12:50.199Z,19.14
2016-07-10T03:13:50.205Z,19.14
2016-07-10T03:14:50.238Z,19.16
2016-07-10T03:15:50.251Z,19.12
2016-07-10T03:16:50.264Z,19.09
2016-07-10T03:17:50.290Z,19.11
2016-07-10T03:18:50.317Z,19.02
2016-07-10T03:19:50.337Z,19.14
2016-07-10T03:20:50.362Z,19.16
2016-07-10T03:21:50.371Z,19.16
2016-07-10T03:22:50.398Z,19.15
2016-07-10T03:23:50.418Z,19.14
2016-07-10T03:24:50.443Z,19.14
2016-07-10T03:25:50.457Z,19.18
2016-07-10T03:26:50.481Z,19.14
2016-07-10T03:27:50.500Z,19.15
2016-07-10T03:28:50.531Z,19.16
2016-07-10T03:29:50.538Z,19.15
2016-07-10T03:30:50.570Z,19.21
2016-07-10T03:31:50.573Z,19.19
2016-07-10T03:32:50.602Z,19.21
2016-07-10T03:33:50.619Z,19.3
2016-07-10T03:34:50.646Z,19.29
2016-07-10T03:35:50.656Z,19.27
2016-07-10T03:36:50.679Z,19.27
2016-07-10T03:37:50.712Z,19.29
2016-07-10T03:38:50.722Z,19.31
2016-07-10T03:39:50.750Z,19.26
2016-07-10T03:40:50.782Z,19.33
2016-07-10T03:41:50.787Z,19.37
2016-07-10T03:42:50.818Z,19.39
2016-07-10T03:43:50.834Z,19.34
2016-07-10T03:44:50.851Z,19.36
2016-07-10T03:45:50.881Z,19.36
2016-07-10T03:46:50.895Z,19.39
2016-07-10T03:47:50.915Z,19.36
2016-07-10T03:48:50.936Z,19.36
2016-07-10T03:49:50.954Z,19.45
2016-07-10T03:50:50.976Z,19.48
2016-07-10T03:51:50.992Z,19.49
2016-07-10T03:52:51.025Z,19.44
2016-07-10T03:53:51.031Z,19.48
2016-07-10T03:54:51.059Z,19.54
2016-07-10T03:55:51.073Z,19.45
2016-07-10T03:56:51.107Z,19.54
2016-07-10T03:57:51.117Z,19.59
2016-07-10T03:58:51.140Z,19.54
2016-07-10T03:59:51.161Z,19.56
2016-07-10T04:00:51.178Z,19.58
2016-07-10T04:01:51.199Z,19.63
2016-07-10T04:02:51.224Z,19.59
2016-07-10T04:03:51.241Z,19.55
2016-07-10T04:04:51.257Z,19.64
2016-07-10T04:05:51.278Z,19.59
2016-07-10T04:06:51.307Z,19.64
2016-07-10T04:07:51.331Z,19.73
2016-07-10T04:08:51.362Z,19.71
2016-07-10T04:09:51.367Z,19.85
2016-07-10T04:10:51.394Z,19.79
2016-07-10T04:11:51.412Z,19.84
2016-07-10T04:12:51.438Z,19.88
2016-07-10T04:13:51.455Z,19.84
2016-07-10T04:14:51.472Z,19.85
2016-07-10T04:15:51.487Z,19.94
2016-07-10T04:16:51.519Z,19.96
2016-07-10T04:17:51.531Z,20.03
2016-07-10T04:18:51.564Z,20
2016-07-10T04:19:51.576Z,20.06
2016-07-10T04:20:51.608Z,20.1
2016-07-10T04:21:51.624Z,20.18
2016-07-10T04:22:51.641Z,20.16
2016-07-10T04:23:51.654Z,20.16
2016-07-10T04:24:51.687Z,20.13
2016-07-10T04:25:51.705Z,20.25
2016-07-10T04:26:51.721Z,20.24
2016-07-10T04:27:51.740Z,20.22
2016-07-10T04:28:51.764Z,20.24
2016-07-10T04:29:51.788Z,20.31
2016-07-10T04:30:51.809Z,20.34
2016-07-10T04:31:51.827Z,20.28
2016-07-10T04:32:51.877Z,20.29
2016-07-10T04:33:51.878Z,20.39
2016-07-10T04:34:51.893Z,20.32
2016-07-10T04:35:51.915Z,20.37
2016-07-10T04:36:51.947Z,20.4
2016-07-10T04:37:51.968Z,20.41
2016-07-10T04:38:51.980Z,20.39
2016-07-10T04:39:52.002Z,20.44
2016-07-10T04:40:52.020Z,20.36
2016-07-10T04:41:52.041Z,20.43
2016-07-10T04:42:52.068Z,20.52
2016-07-10T04:43:52.087Z,20.52
2016-07-10T04:44:52.106Z,20.62
2016-07-10T04:45:52.121Z,20.67
2016-07-10T04:46:52.153Z,20.77
2016-07-10T04:47:52.170Z,20.72
2016-07-10T04:48:52.189Z,20.67
2016-07-10T04:49:52.209Z,20.74
2016-07-10T04:50:52.243Z,20.77
2016-07-10T04:51:52.255Z,20.87
2016-07-10T04:52:52.266Z,20.9
2016-07-10T04:53:52.292Z,20.87
2016-07-10T04:54:52.320Z,20.92
2016-07-10T04:55:52.334Z,20.93
2016-07-10T04:56:52.366Z,20.97
2016-07-10T04:57:52.375Z,21.02
2016-07-10T04:58:52.412Z,20.95
2016-07-10T04:59:52.422Z,20.99
2016-07-10T05:00:52.449Z,21.05
2016-07-10T05:01:52.467Z,21.18
2016-07-10T05:02:52.489Z,21.15
2016-07-10T05:03:52.504Z,21.12
2016-07-10T05:04:52.538Z,21.07
2016-07-10T05:05:52.553Z,21.21
2016-07-10T05:06:52.582Z,21.27
2016-07-10T05:07:52.594Z,21.24
2016-07-10T05:08:52.617Z,21.24
2016-07-10T05:09:52.634Z,21.25
2016-07-10T05:10:52.670Z,21.24
2016-07-10T05:11:52.679Z,21.3
2016-07-10T05:12:52.704Z,21.36
2016-07-10T05:13:52.722Z,21.32
2016-07-10T05:14:52.756Z,21.29
2016-07-10T05:15:52.777Z,21.42
2016-07-10T05:16:52.781Z,21.46
2016-07-10T05:17:52.817Z,21.5
2016-07-10T05:18:52.839Z,21.48
2016-07-10T05:19:52.855Z,21.45
2016-07-10T05:20:52.879Z,21.43
2016-07-10T05:21:52.896Z,21.55
2016-07-10T05:22:52.923Z,21.55
2016-07-10T05:23:52.944Z,21.57
2016-07-10T05:24:52.958Z,21.66
2016-07-10T05:25:52.983Z,21.67
2016-07-10T05:26:53.006Z,21.69
2016-07-10T05:27:53.027Z,21.82
2016-07-10T05:28:53.047Z,21.91
2016-07-10T05:29:53.069Z,21.98
2016-07-10T05:30:53.094Z,22.11
2016-07-10T05:31:53.117Z,22.2
2016-07-10T05:32:53.137Z,22.23
2016-07-10T05:33:53.154Z,22.23
2016-07-10T05:34:53.188Z,22.26
2016-07-10T05:35:53.200Z,22.43
2016-07-10T05:36:53.228Z,22.44
2016-07-10T05:37:53.264Z,22.59
2016-07-10T05:38:53.271Z,22.59
2016-07-10T05:39:53.292Z,22.65
2016-07-10T05:40:53.312Z,22.72
2016-07-10T05:41:53.346Z,22.8
2016-07-10T05:42:53.365Z,22.96
2016-07-10T05:43:53.381Z,23.12
2016-07-10T05:44:53.415Z,23.15
2016-07-10T05:45:53.421Z,23.18
2016-07-10T05:46:53.453Z,23.27
2016-07-10T05:47:53.478Z,23.28
2016-07-10T05:48:53.505Z,23.32
2016-07-10T05:49:53.512Z,23.51
2016-07-10T05:50:53.540Z,23.62
2016-07-10T05:51:53.563Z,23.65
2016-07-10T05:52:53.586Z,23.68
2016-07-10T05:53:53.598Z,23.71
2016-07-10T05:54:53.627Z,23.77
2016-07-10T05:55:53.649Z,23.86
2016-07-10T05:56:53.674Z,23.91
2016-07-10T05:57:53.693Z,23.92
2016-07-10T05:58:53.714Z,24.06
2016-07-10T05:59:53.738Z,24.18
2016-07-10T06:00:53.765Z,24.16
2016-07-10T06:01:53.791Z,24.14
2016-07-10T06:02:53.809Z,24.23
2016-07-10T06:03:53.829Z,24.26
2016-07-10T06:04:53.854Z,24.36
2016-07-10T06:05:53.887Z,24.42
2016-07-10T06:06:53.915Z,24.29
2016-07-10T06:07:53.920Z,24.42
2016-07-10T06:08:53.944Z,24.51
2016-07-10T06:09:53.970Z,24.63
2016-07-10T06:10:53.997Z,24.78
2016-07-10T06:11:54.017Z,24.92
2016-07-10T06:12:54.042Z,25.03
2016-07-10T06:13:54.064Z,25.14
2016-07-10T06:14:54.084Z,25.22
2016-07-10T06:15:54.108Z,25.23
2016-07-10T06:16:54.141Z,25.32
2016-07-10T06:17:54.148Z,25.36
2016-07-10T06:18:54.189Z,25.41
2016-07-10T06:19:54.210Z,25.22
2016-07-10T06:20:54.235Z,25.23
2016-07-10T06:21:54.247Z,25.29
2016-07-10T06:22:54.272Z,25.4
2016-07-10T06:23:54.302Z,25.5
2016-07-10T06:24:54.313Z,25.65
2016-07-10T06:25:54.341Z,25.69
2016-07-10T06:26:54.366Z,25.81
2016-07-10T06:27:54.407Z,25.8
2016-07-10T06:28:54.408Z,26
2016-07-10T06:29:54.453Z,26.09
2016-07-10T06:30:54.457Z,26.1
2016-07-10T06:31:54.490Z,26.21
2016-07-10T06:32:54.508Z,26.36
2016-07-10T06:33:54.534Z,26.36
2016-07-10T06:34:54.558Z,26.36
2016-07-10T06:35:54.590Z,26.41
2016-07-10T06:36:54.610Z,26.36
2016-07-10T06:37:54.629Z,26.47
2016-07-10T06:38:54.657Z,26.56
2016-07-10T06:39:54.675Z,26.53
2016-07-10T06:40:54.700Z,26.51
2016-07-10T06:41:54.735Z,26.45
2016-07-10T06:42:54.745Z,26.53
2016-07-10T06:43:54.780Z,26.41
2016-07-10T06:44:54.798Z,26.53
2016-07-10T06:45:54.825Z,26.45
2016-07-10T06:46:54.848Z,26.62
2016-07-10T06:47:54.871Z,26.62
2016-07-10T06:48:54.896Z,26.65
2016-07-10T06:49:54.917Z,26.7
2016-07-10T06:50:54.956Z,26.71
2016-07-10T06:51:54.967Z,26.8
2016-07-10T06:52:54.995Z,26.75
2016-07-10T06:53:55.013Z,26.7
2016-07-10T06:54:55.050Z,26.71
2016-07-10T06:55:55.065Z,26.75
2016-07-10T06:56:55.090Z,26.7
2016-07-10T06:57:55.110Z,26.66
2016-07-10T06:58:55.134Z,26.65
2016-07-10T06:59:55.165Z,26.75
2016-07-10T07:00:55.191Z,26.84
2016-07-10T07:01:55.209Z,26.84
2016-07-10T07:02:55.236Z,26.9
2016-07-10T07:03:55.266Z,26.84
2016-07-10T07:04:55.293Z,26.59
2016-07-10T07:05:55.305Z,26.52
2016-07-10T07:06:55.338Z,26.51
2016-07-10T07:07:55.357Z,26.44
2016-07-10T07:08:55.389Z,26.36
2016-07-10T07:09:55.398Z,26.43
2016-07-10T07:10:55.433Z,26.36
2016-07-10T07:11:55.450Z,26.41
2016-07-10T07:12:55.485Z,26.37
2016-07-10T07:13:55.503Z,26.47
2016-07-10T07:14:55.525Z,26.52
2016-07-10T07:15:55.561Z,26.47
2016-07-10T07:16:55.574Z,26.45
2016-07-10T07:17:55.599Z,26.51
2016-07-10T07:18:55.618Z,26.56
2016-07-10T07:19:55.658Z,26.45
2016-07-10T07:20:55.680Z,26.44
2016-07-10T07:21:55.702Z,26.51
2016-07-10T07:22:55.713Z,26.58
2016-07-10T07:23:55.740Z,26.6
2016-07-10T07:24:55.779Z,26.62
2016-07-10T07:25:55.794Z,26.63
2016-07-10T07:26:55.817Z,26.51
2016-07-10T07:27:55.844Z,26.66
2016-07-10T07:28:55.886Z,26.8
2016-07-10T07:29:55.894Z,26.95
2016-07-10T07:30:55.932Z,26.92
2016-07-10T07:31:55.950Z,27.02
2016-07-10T07:32:55.959Z,26.93
2016-07-10T07:33:55.996Z,27.03
2016-07-10T07:34:56.016Z,27.1
2016-07-10T07:35:56.043Z,27.14
2016-07-10T07:36:56.074Z,27.14
2016-07-10T07:37:56.087Z,27.14
2016-07-10T07:38:56.118Z,27.03
2016-07-10T07:39:56.135Z,26.99
2016-07-10T07:40:56.156Z,27.02
2016-07-10T07:41:56.179Z,27.08
2016-07-10T07:42:56.217Z,27.17
2016-07-10T07:43:56.233Z,27.17
2016-07-10T07:44:56.260Z,27.1
2016-07-10T07:45:56.283Z,26.97
2016-07-10T07:46:56.312Z,26.77
2016-07-10T07:47:56.332Z,26.68
2016-07-10T07:48:56.349Z,26.65
2016-07-10T07:49:56.378Z,26.63
2016-07-10T07:50:56.411Z,26.62
2016-07-10T07:51:56.435Z,26.48
2016-07-10T07:52:56.461Z,26.44
2016-07-10T07:53:56.469Z,26.47
2016-07-10T07:54:56.507Z,26.53
2016-07-10T07:55:56.521Z,26.53
2016-07-10T07:56:56.557Z,26.62
2016-07-10T07:57:56.576Z,26.62
2016-07-10T07:58:56.598Z,26.62
2016-07-10T07:59:56.627Z,26.66
2016-07-10T08:00:56.652Z,26.71
2016-07-10T08:01:56.662Z,26.77
2016-07-10T08:02:56.703Z,26.74
2016-07-10T08:03:56.728Z,26.81
2016-07-10T08:04:56.745Z,26.74
2016-07-10T08:05:56.770Z,26.84
2016-07-10T08:06:56.785Z,26.84
2016-07-10T08:07:56.823Z,26.85
2016-07-10T08:08:56.846Z,27.02
2016-07-10T08:09:56.879Z,26.95
2016-07-10T08:10:56.880Z,27.02
2016-07-10T08:11:56.910Z,27.2
2016-07-10T08:12:56.942Z,27.17
2016-07-10T08:13:56.962Z,27.35
2016-07-10T08:14:56.989Z,27.35
2016-07-10T08:15:57.008Z,27.25
2016-07-10T08:16:57.030Z,27.3
2016-07-10T08:17:57.062Z,27.27
2016-07-10T08:18:57.084Z,27.4
2016-07-10T08:19:57.108Z,27.44
2016-07-10T08:20:57.128Z,27.51
2016-07-10T08:21:57.163Z,27.49
2016-07-10T08:22:57.178Z,27.52
2016-07-10T08:23:57.214Z,27.71
2016-07-10T08:24:57.250Z,27.8
2016-07-10T08:25:57.252Z,27.85
2016-07-10T08:26:57.289Z,27.83
2016-07-10T08:27:57.302Z,27.83
2016-07-10T08:28:57.325Z,27.78
2016-07-10T08:29:57.347Z,27.75
2016-07-10T08:30:57.381Z,27.75
2016-07-10T08:31:57.401Z,27.65
2016-07-10T08:32:57.425Z,27.48
2016-07-10T08:33:57.448Z,27.48
2016-07-10T08:34:57.475Z,27.71
2016-07-10T08:35:57.503Z,27.78
2016-07-10T08:36:57.521Z,27.8
2016-07-10T08:37:57.562Z,27.87
2016-07-10T08:38:57.578Z,27.9
2016-07-10T08:39:57.604Z,27.87
2016-07-10T08:40:57.628Z,27.89
2016-07-10T08:41:57.656Z,27.85
2016-07-10T08:42:57.674Z,27.87
2016-07-10T08:43:57.699Z,27.89
2016-07-10T08:44:57.731Z,27.83
2016-07-10T08:45:57.757Z,27.82
2016-07-10T08:46:57.779Z,27.8
2016-07-10T08:47:57.794Z,27.83
2016-07-10T08:48:57.830Z,27.82
2016-07-10T08:49:57.894Z,27.8
2016-07-10T08:50:57.867Z,27.83
2016-07-10T08:51:57.898Z,27.9
2016-07-10T08:52:57.930Z,27.9
2016-07-10T08:53:57.954Z,27.95
2016-07-10T08:54:58.007Z,27.89
2016-07-10T08:55:58.012Z,27.95
2016-07-10T08:56:58.022Z,28.01
2016-07-10T08:57:58.081Z,28.11
2016-07-10T08:58:58.063Z,28.11
2016-07-10T08:59:58.088Z,28.08
2016-07-10T09:00:58.125Z,28.1
2016-07-10T09:01:58.142Z,28.04
2016-07-10T09:02:58.169Z,28.23
2016-07-10T09:03:58.202Z,28.19
2016-07-10T09:04:58.220Z,28.29
2016-07-10T09:05:58.244Z,28.2
2016-07-10T09:06:58.273Z,28.29
2016-07-10T09:07:58.299Z,28.37
2016-07-10T09:08:58.322Z,28.39
2016-07-10T09:09:58.347Z,28.39
2016-07-10T09:10:58.369Z,28.42
2016-07-10T09:11:58.398Z,28.41
2016-07-10T09:12:58.417Z,28.44
2016-07-10T09:13:58.446Z,28.49
2016-07-10T09:14:58.474Z,28.59
2016-07-10T09:15:58.492Z,28.62
2016-07-10T09:16:58.520Z,28.66
2016-07-10T09:17:58.543Z,28.7
2016-07-10T09:18:58.577Z,28.79
2016-07-10T09:19:58.591Z,28.79
2016-07-10T09:20:58.616Z,28.81
2016-07-10T09:21:58.646Z,28.82
2016-07-10T09:22:58.686Z,28.88
2016-07-10T09:23:58.694Z,28.79
2016-07-10T09:24:58.713Z,28.69
2016-07-10T09:25:58.741Z,28.59
2016-07-10T09:26:58.778Z,28.69
2016-07-10T09:27:58.801Z,28.75
2016-07-10T09:28:58.835Z,28.62
2016-07-10T09:29:58.840Z,28.57
2016-07-10T09:30:58.881Z,28.64
2016-07-10T09:31:58.898Z,28.63
2016-07-10T09:32:58.935Z,28.6
2016-07-10T09:33:58.951Z,28.51
2016-07-10T09:34:58.972Z,28.66
2016-07-10T09:35:58.992Z,28.59
2016-07-10T09:36:59.026Z,28.62
2016-07-10T09:37:59.058Z,28.62
2016-07-10T09:38:59.072Z,28.44
2016-07-10T09:39:59.101Z,28.38
2016-07-10T09:40:59.125Z,28.42
2016-07-10T09:41:59.144Z,28.2
2016-07-10T09:42:59.182Z,28.3
2016-07-10T09:43:59.201Z,28.23
2016-07-10T09:44:59.227Z,28.2
2016-07-10T09:45:59.241Z,28.25
2016-07-10T09:46:59.279Z,28.23
2016-07-10T09:47:59.300Z,28.15
2016-07-10T09:48:59.332Z,28.19
2016-07-10T09:49:59.349Z,28.12
2016-07-10T09:50:59.370Z,28.22
2016-07-10T09:51:59.401Z,28.17
2016-07-10T09:52:59.418Z,28.23
2016-07-10T09:53:59.454Z,28.3
2016-07-10T09:54:59.472Z,28.42
2016-07-10T09:55:59.505Z,28.39
2016-07-10T09:56:59.527Z,28.37
2016-07-10T09:57:59.549Z,28.39
2016-07-10T09:58:59.574Z,28.33
2016-07-10T09:59:59.600Z,28.42
2016-07-10T10:00:59.619Z,28.54
2016-07-10T10:01:59.650Z,28.44
2016-07-10T10:02:59.682Z,28.39
2016-07-10T10:03:59.709Z,28.39
2016-07-10T10:04:59.719Z,28.45
2016-07-10T10:05:59.750Z,28.42
2016-07-10T10:06:59.774Z,28.42
2016-07-10T10:07:59.800Z,28.62
2016-07-10T10:08:59.819Z,28.64
2016-07-10T10:09:59.851Z,28.78
2016-07-10T10:10:59.868Z,28.78
2016-07-10T10:11:59.901Z,29.04
2016-07-10T10:12:59.914Z,29.16
2016-07-10T10:13:59.947Z,29.19
2016-07-10T10:14:59.984Z,29.24
2016-07-10T10:15:59.996Z,29.17
2016-07-10T10:17:00.040Z,29.24
2016-07-10T10:18:00.048Z,29.19
2016-07-10T10:19:00.079Z,29.16
2016-07-10T10:20:00.105Z,29.2
2016-07-10T10:21:00.134Z,29.2
2016-07-10T10:22:00.147Z,29.19
2016-07-10T10:23:00.184Z,29.17
2016-07-10T10:24:00.203Z,29.31
2016-07-10T10:25:00.234Z,29.35
2016-07-10T10:26:00.259Z,29.42
2016-07-10T10:27:00.279Z,29.32
2016-07-10T10:28:00.308Z,29.32
2016-07-10T10:29:00.335Z,29.41
2016-07-10T10:30:00.361Z,29.5
2016-07-10T10:31:00.385Z,29.36
2016-07-10T10:32:00.408Z,29.22
2016-07-10T10:33:00.438Z,29.17
2016-07-10T10:34:00.458Z,29.23
2016-07-10T10:35:00.490Z,29.31
2016-07-10T10:36:00.512Z,29.22
2016-07-10T10:37:00.540Z,29.24
2016-07-10T10:38:00.563Z,29.2
2016-07-10T10:39:00.583Z,29.19
2016-07-10T10:40:00.621Z,29.13
2016-07-10T10:41:00.637Z,29.2
2016-07-10T10:42:00.674Z,29.27
2016-07-10T10:43:00.690Z,29.22
2016-07-10T10:44:00.719Z,29.22
2016-07-10T10:45:00.744Z,29.2
2016-07-10T10:46:00.769Z,29.31
2016-07-10T10:47:00.792Z,29.35
2016-07-10T10:48:00.826Z,29.35
2016-07-10T10:49:00.845Z,29.49
2016-07-10T10:50:00.865Z,29.61
2016-07-10T10:51:00.897Z,29.49
2016-07-10T10:52:00.929Z,29.61
2016-07-10T10:53:00.946Z,29.72
2016-07-10T10:54:00.969Z,29.69
2016-07-10T10:55:00.999Z,29.68
2016-07-10T10:56:01.026Z,29.68
2016-07-10T10:57:01.045Z,29.65
2016-07-10T10:58:01.080Z,29.75
2016-07-10T10:59:01.092Z,29.75
2016-07-10T11:00:01.131Z,29.59
2016-07-10T11:01:01.151Z,29.53
2016-07-10T11:02:01.180Z,29.47
2016-07-10T11:03:01.197Z,29.39
2016-07-10T11:04:01.229Z,29.39
2016-07-10T11:05:01.259Z,29.42
2016-07-10T11:06:01.272Z,29.26
2016-07-10T11:07:01.310Z,29.24
2016-07-10T11:08:01.330Z,29.24
2016-07-10T11:09:01.364Z,29.34
2016-07-10T11:10:01.385Z,29.57
2016-07-10T11:11:01.414Z,29.71
2016-07-10T11:12:01.438Z,29.81
2016-07-10T11:13:01.465Z,29.94
2016-07-10T11:14:01.483Z,29.93
2016-07-10T11:15:01.505Z,30.12
2016-07-10T11:16:01.534Z,30.03
2016-07-10T11:17:01.560Z,30.05
2016-07-10T11:18:01.585Z,30
2016-07-10T11:19:01.614Z,30.13
2016-07-10T11:20:01.642Z,30.19
2016-07-10T11:21:01.667Z,30.32
2016-07-10T11:22:01.693Z,30.5
2016-07-10T11:23:01.717Z,30.5
2016-07-10T11:24:01.745Z,30.61
2016-07-10T11:25:01.763Z,30.65
2016-07-10T11:26:01.796Z,30.65
2016-07-10T11:27:01.839Z,30.69
2016-07-10T11:28:01.844Z,30.68
2016-07-10T11:29:01.875Z,30.72
2016-07-10T11:30:01.903Z,30.78
2016-07-10T11:31:01.925Z,30.92
2016-07-10T11:32:01.956Z,31
2016-07-10T11:33:01.978Z,31.2
2016-07-10T11:34:02.005Z,31.24
2016-07-10T11:35:02.036Z,31.29
2016-07-10T11:36:02.056Z,31.42
2016-07-10T11:37:02.084Z,31.4
2016-07-10T11:38:02.116Z,31.51
2016-07-10T11:39:02.138Z,31.55
2016-07-10T11:40:02.161Z,31.61
2016-07-10T11:41:02.191Z,31.51
2016-07-10T11:42:02.213Z,31.62
2016-07-10T11:43:02.242Z,31.62
2016-07-10T11:44:02.276Z,31.69
2016-07-10T11:45:02.298Z,31.7
2016-07-10T11:46:02.332Z,31.69
2016-07-10T11:47:02.345Z,31.74
2016-07-10T11:48:02.386Z,31.87
2016-07-10T11:49:02.397Z,32
2016-07-10T11:50:02.431Z,32.04
2016-07-10T11:51:02.452Z,32.03
2016-07-10T11:52:02.492Z,31.99
2016-07-10T11:53:02.525Z,32.08
2016-07-10T11:54:02.540Z,32.09
2016-07-10T11:55:02.568Z,32.19
2016-07-10T11:56:02.592Z,32.21
2016-07-10T11:57:02.629Z,32.15
2016-07-10T11:58:02.643Z,32.11
2016-07-10T11:59:02.677Z,31.99
2016-07-10T12:00:02.705Z,32.07
2016-07-10T12:01:02.738Z,32.23
2016-07-10T12:02:02.759Z,32.34
2016-07-10T12:03:02.793Z,32.31
2016-07-10T12:04:02.818Z,32.19
2016-07-10T12:05:02.843Z,32.26
2016-07-10T12:06:02.868Z,32.15
2016-07-10T12:07:02.893Z,31.94
2016-07-10T12:08:02.928Z,31.94
2016-07-10T12:09:02.960Z,31.87
2016-07-10T12:10:02.977Z,31.92
2016-07-10T12:11:03.010Z,32.08
2016-07-10T12:12:03.038Z,32.3
2016-07-10T12:13:03.065Z,32.34
2016-07-10T12:14:03.087Z,32.34
2016-07-10T12:15:03.118Z,32.34
2016-07-10T12:16:03.136Z,32.48
2016-07-10T12:17:03.169Z,32.46
2016-07-10T12:18:03.194Z,32.51
2016-07-10T12:19:03.222Z,32.46
2016-07-10T12:20:03.256Z,32.36
2016-07-10T12:21:03.275Z,32.52
2016-07-10T12:22:03.304Z,32.41
2016-07-10T12:23:03.335Z,32.36
2016-07-10T12:24:03.366Z,32.46
2016-07-10T12:25:03.401Z,32.51
2016-07-10T12:26:03.417Z,32.65
2016-07-10T12:27:03.440Z,32.63
2016-07-10T12:28:03.479Z,32.56
2016-07-10T12:29:03.505Z,32.63
2016-07-10T12:30:03.521Z,32.46
2016-07-10T12:31:03.561Z,32.37
2016-07-10T12:32:03.590Z,32.43
2016-07-10T12:33:03.603Z,32.29
2016-07-10T12:34:03.635Z,32.18
2016-07-10T12:35:03.661Z,32.08
2016-07-10T12:36:03.697Z,31.87
2016-07-10T12:37:03.711Z,31.81
2016-07-10T12:38:03.747Z,31.74
2016-07-10T12:39:03.762Z,31.66
2016-07-10T12:40:03.806Z,31.61
2016-07-10T12:41:03.823Z,31.7
2016-07-10T12:42:03.854Z,31.59
2016-07-10T12:43:03.873Z,31.54
2016-07-10T12:44:03.906Z,31.47
2016-07-10T12:45:03.934Z,31.4
2016-07-10T12:46:03.961Z,31.39
2016-07-10T12:47:03.990Z,31.39
2016-07-10T12:48:04.009Z,31.36
2016-07-10T12:49:04.044Z,31.21
2016-07-10T12:50:04.064Z,31.2
2016-07-10T12:51:04.097Z,31.21
2016-07-10T12:52:04.120Z,31.14
2016-07-10T12:53:04.152Z,31.21
2016-07-10T12:54:04.177Z,31.33
2016-07-10T12:55:04.209Z,31.4
2016-07-10T12:56:04.228Z,31.59